Time;durP1;ratioP1;P1;durP2;ratioP2;P2;SDS_P1;SDS_P2;PMS_P1;PMS_P2;Temp;Humidity;BMP_temperature;BMP_pressure;BME280_temperature;BME280_humidity;BME280_pressure;Samples;Min_cycle;Max_cycle;Signal;HPM_P1;HPM_P2
2023/12/17 00:01:28;;;;;;;9.90;8.90;;;18.60;57.40;;;;;;4973408;28;20206;-71
2023/12/17 00:03:54;;;;;;;9.88;8.93;;;18.70;57.40;;;;;;4983564;28;20566;-70
2023/12/17 00:06:20;;;;;;;10.57;9.57;;;18.70;57.50;;;;;;4960269;28;20194;-70
2023/12/17 00:08:48;;;;;;;9.88;8.90;;;18.70;57.50;;;;;;4981696;28;20193;-70
2023/12/17 00:11:14;;;;;;;11.00;9.90;;;18.70;57.40;;;;;;4970343;28;20213;-70
2023/12/17 00:13:40;;;;;;;10.63;9.52;;;18.60;57.30;;;;;;4973344;28;20197;-70
2023/12/17 00:16:06;;;;;;;10.23;9.23;;;18.60;57.40;;;;;;4972940;28;20209;-72
2023/12/17 00:18:33;;;;;;;10.15;9.10;;;18.60;57.40;;;;;;4975397;28;20184;-70
2023/12/17 00:20:59;;;;;;;9.73;8.82;;;18.70;57.50;;;;;;4985332;28;20205;-70
2023/12/17 00:23:25;;;;;;;10.80;9.70;;;18.60;57.40;;;;;;4962073;28;20335;-70
2023/12/17 00:25:50;;;;;;;11.13;9.52;;;18.60;57.40;;;;;;4973252;28;20280;-70
2023/12/17 00:28:16;;;;;;;11.25;10.18;;;18.60;57.30;;;;;;4974892;28;20248;-70
2023/12/17 00:30:43;;;;;;;10.38;9.38;;;18.60;57.40;;;;;;4980898;28;20226;-70
2023/12/17 00:33:10;;;;;;;10.85;9.75;;;18.60;57.40;;;;;;4967827;28;20213;-69
2023/12/17 00:35:36;;;;;;;10.23;9.23;;;18.60;57.40;;;;;;4970340;28;20243;-70
2023/12/17 00:38:02;;;;;;;10.75;9.73;;;18.70;57.50;;;;;;4972623;28;20189;-70
2023/12/17 00:40:28;;;;;;;10.38;9.32;;;18.60;57.40;;;;;;4949115;28;20286;-70
2023/12/17 00:42:54;;;;;;;10.70;9.45;;;18.60;57.30;;;;;;4971036;28;20186;-70
2023/12/17 00:45:19;;;;;;;10.57;9.52;;;18.60;57.30;;;;;;4982518;28;20194;-70
2023/12/17 00:47:45;;;;;;;10.55;9.48;;;18.70;57.40;;;;;;4988627;28;20193;-71
2023/12/17 00:50:11;;;;;;;10.23;9.23;;;18.60;57.20;;;;;;4975011;28;20216;-70
2023/12/17 00:52:37;;;;;;;10.32;9.32;;;18.70;57.40;;;;;;4965279;28;20190;-70
2023/12/17 00:55:02;;;;;;;10.07;9.02;;;18.70;57.30;;;;;;4984277;28;20193;-70
2023/12/17 00:57:28;;;;;;;9.98;9.07;;;18.70;57.30;;;;;;4961000;28;20286;-70
2023/12/17 00:59:54;;;;;;;9.57;8.68;;;18.60;57.30;;;;;;4969610;28;20222;-69
2023/12/17 01:02:20;;;;;;;9.75;8.77;;;18.60;57.20;;;;;;4973999;28;20216;-70
2023/12/17 01:04:45;;;;;;;9.65;8.80;;;18.60;57.20;;;;;;4961397;28;20190;-70
2023/12/17 01:07:11;;;;;;;10.32;9.25;;;18.60;57.30;;;;;;4975947;28;20194;-71
2023/12/17 01:09:37;;;;;;;9.35;8.45;;;18.60;57.20;;;;;;4961811;28;20186;-70
2023/12/17 01:12:04;;;;;;;10.32;9.20;;;18.60;57.30;;;;;;4972671;28;20217;-70
2023/12/17 01:14:34;;;;;;;9.80;8.80;;;18.60;57.20;;;;;;4974667;28;20204;-70
2023/12/17 01:17:01;;;;;;;10.25;9.25;;;18.60;57.20;;;;;;4988862;28;20235;-70
2023/12/17 01:19:28;;;;;;;9.68;8.68;;;18.60;57.20;;;;;;4969693;28;20277;-70
2023/12/17 01:21:54;;;;;;;9.43;8.35;;;18.60;57.20;;;;;;4977029;28;20339;-70
2023/12/17 01:24:19;;;;;;;9.30;8.40;;;18.60;57.20;;;;;;4977231;28;20276;-70
2023/12/17 01:26:45;;;;;;;9.05;8.15;;;18.60;57.20;;;;;;4953250;28;20681;-71
2023/12/17 01:29:11;;;;;;;10.10;9.10;;;18.60;57.20;;;;;;4959480;28;20190;-70
2023/12/17 01:31:36;;;;;;;9.40;8.50;;;18.60;57.20;;;;;;4978763;28;20243;-70
2023/12/17 01:34:02;;;;;;;9.93;8.93;;;18.60;57.20;;;;;;4997396;28;20315;-71
2023/12/17 01:36:28;;;;;;;9.35;8.35;;;18.60;57.20;;;;;;4976013;28;20213;-70
2023/12/17 01:38:54;;;;;;;10.32;9.32;;;18.60;57.20;;;;;;4975685;28;20189;-69
2023/12/17 01:41:19;;;;;;;9.65;8.68;;;18.60;57.20;;;;;;4952234;28;20233;-70
2023/12/17 01:43:45;;;;;;;9.27;8.38;;;18.60;57.20;;;;;;4981224;28;20194;-70
2023/12/17 01:46:11;;;;;;;9.85;8.85;;;18.60;57.20;;;;;;4975605;28;20194;-70
2023/12/17 01:48:37;;;;;;;9.77;8.88;;;18.60;57.20;;;;;;4968648;28;20190;-70
2023/12/17 01:51:03;;;;;;;9.63;8.73;;;18.60;57.20;;;;;;4954875;28;20277;-70
2023/12/17 01:53:29;;;;;;;9.35;8.35;;;18.60;57.20;;;;;;4979413;28;20196;-70
2023/12/17 01:55:55;;;;;;;9.00;8.20;;;18.60;57.80;;;;;;4957418;28;20355;-70
2023/12/17 01:58:22;;;;;;;9.43;8.52;;;18.60;57.20;;;;;;4955241;28;20289;-70
2023/12/17 02:00:49;;;;;;;9.70;8.43;;;18.60;57.20;;;;;;4972499;28;20212;-69
2023/12/17 02:03:14;;;;;;;10.00;8.82;;;18.60;57.10;;;;;;4959528;28;20222;-70
2023/12/17 02:05:44;;;;;;;10.32;9.30;;;18.60;57.10;;;;;;4971683;28;20218;-70
2023/12/17 02:08:09;;;;;;;9.68;8.73;;;18.60;57.20;;;;;;4986889;28;20205;-70
2023/12/17 02:10:35;;;;;;;10.07;9.07;;;18.60;57.10;;;;;;4958827;28;20300;-70
2023/12/17 02:13:01;;;;;;;9.45;8.02;;;18.60;57.20;;;;;;4968001;28;20194;-69
2023/12/17 02:15:27;;;;;;;9.27;8.38;;;18.60;57.10;;;;;;4967999;28;20285;-70
2023/12/17 02:17:53;;;;;;;9.32;8.30;;;18.60;57.20;;;;;;4956978;28;20181;-69
2023/12/17 02:20:19;;;;;;;10.65;8.75;;;18.60;57.20;;;;;;4974566;28;20201;-70
2023/12/17 02:22:55;;;;;;;9.52;8.55;;;18.60;57.20;;;;;;4971463;28;20612;-70
2023/12/17 02:25:21;;;;;;;9.60;8.60;;;18.60;57.10;;;;;;4976774;28;20277;-69
2023/12/17 02:27:46;;;;;;;8.75;7.85;;;18.60;57.10;;;;;;4979340;28;20284;-70
2023/12/17 02:30:12;;;;;;;9.48;8.27;;;18.60;57.10;;;;;;4990810;28;20193;-70
2023/12/17 02:32:38;;;;;;;8.82;7.95;;;18.50;57.00;;;;;;4960543;28;20205;-70
2023/12/17 02:35:04;;;;;;;9.07;8.18;;;18.60;57.10;;;;;;4971143;28;20222;-69
2023/12/17 02:37:30;;;;;;;8.88;7.97;;;18.60;57.10;;;;;;4982477;28;20195;-69
2023/12/17 02:39:56;;;;;;;9.43;8.43;;;18.60;57.10;;;;;;4971599;28;20183;-69
2023/12/17 02:42:21;;;;;;;8.65;7.70;;;18.60;57.10;;;;;;4971372;28;20257;-69
2023/12/17 02:44:48;;;;;;;8.57;7.70;;;18.60;57.10;;;;;;4993230;28;20223;-69
2023/12/17 02:47:13;;;;;;;8.20;7.38;;;18.60;57.10;;;;;;4956148;28;20189;-70
2023/12/17 02:49:41;;;;;;;8.45;7.60;;;18.60;57.00;;;;;;4976467;28;20193;-70
2023/12/17 02:52:07;;;;;;;8.77;7.88;;;18.60;57.10;;;;;;4974316;28;20244;-70
2023/12/17 02:54:33;;;;;;;8.65;7.82;;;18.60;57.00;;;;;;4972240;28;20225;-70
2023/12/17 02:56:58;;;;;;;8.50;7.70;;;18.60;57.10;;;;;;4974073;28;20225;-69
2023/12/17 02:59:24;;;;;;;7.75;7.05;;;18.60;57.00;;;;;;4982010;28;20197;-70
2023/12/17 03:01:51;;;;;;;8.45;7.55;;;18.60;57.00;;;;;;4961171;28;20291;-70
2023/12/17 03:04:17;;;;;;;7.88;7.07;;;18.60;57.00;;;;;;4966186;28;20185;-70
2023/12/17 03:06:43;;;;;;;8.05;7.32;;;18.60;57.00;;;;;;4996597;28;20217;-70
2023/12/17 03:09:10;;;;;;;8.20;7.20;;;18.60;57.00;;;;;;4971179;28;20232;-69
2023/12/17 03:11:37;;;;;;;8.32;7.47;;;18.50;56.90;;;;;;4974125;28;20706;-69
2023/12/17 03:14:03;;;;;;;8.27;7.47;;;18.50;57.00;;;;;;4974595;28;20197;-71
2023/12/17 03:16:29;;;;;;;7.55;6.85;;;18.60;57.00;;;;;;4968920;28;20213;-69
2023/12/17 03:18:55;;;;;;;7.65;6.95;;;18.50;56.90;;;;;;4957080;28;20609;-70
2023/12/17 03:21:23;;;;;;;8.18;7.35;;;18.60;57.00;;;;;;4971608;28;20202;-69
2023/12/17 03:23:50;;;;;;;6.93;6.30;;;18.60;56.90;;;;;;4964069;28;20228;-70
2023/12/17 03:26:16;;;;;;;7.55;6.70;;;18.60;56.90;;;;;;4971871;28;20201;-69
2023/12/17 03:28:42;;;;;;;6.90;6.30;;;18.60;56.90;;;;;;4984786;28;20186;-70
2023/12/17 03:31:11;;;;;;;7.63;6.93;;;18.50;56.80;;;;;;4959329;28;20218;-71
2023/12/17 03:33:37;;;;;;;7.15;6.45;;;18.60;56.90;;;;;;4968238;28;20204;-70
2023/12/17 03:36:03;;;;;;;7.18;6.47;;;18.60;57.50;;;;;;4965278;28;20213;-70
2023/12/17 03:38:29;;;;;;;7.35;6.63;;;18.60;56.90;;;;;;4979099;28;20189;-70
2023/12/17 03:40:55;;;;;;;6.95;6.25;;;18.60;56.90;;;;;;4969773;28;20278;-70
2023/12/17 03:43:20;;;;;;;7.50;6.80;;;18.60;56.80;;;;;;4971736;28;20189;-70
2023/12/17 03:45:46;;;;;;;7.35;6.65;;;18.60;56.90;;;;;;4955112;28;20197;-69
2023/12/17 03:48:12;;;;;;;7.18;6.28;;;18.60;56.90;;;;;;4956694;28;20194;-70
2023/12/17 03:50:38;;;;;;;6.88;6.28;;;18.60;56.80;;;;;;4958164;28;20216;-70
2023/12/17 03:53:10;;;;;;;6.97;6.28;;;18.60;56.80;;;;;;4958349;28;20193;-70
2023/12/17 03:55:37;;;;;;;6.90;6.20;;;18.60;56.90;;;;;;4979902;28;20224;-70
2023/12/17 03:58:04;;;;;;;6.30;5.70;;;18.60;56.90;;;;;;4960469;28;20186;-70
2023/12/17 04:00:30;;;;;;;6.28;5.68;;;18.60;56.80;;;;;;4955197;28;20267;-69
2023/12/17 04:02:56;;;;;;;6.55;5.95;;;18.50;56.80;;;;;;4972217;28;20193;-71
2023/12/17 04:05:25;;;;;;;6.63;5.97;;;18.50;56.80;;;;;;4960348;28;20212;-69
2023/12/17 04:07:52;;;;;;;6.88;6.18;;;18.50;56.80;;;;;;4968929;28;20194;-70
2023/12/17 04:10:18;;;;;;;5.75;5.25;;;18.50;56.80;;;;;;4966105;28;20733;-69
2023/12/17 04:12:43;;;;;;;6.95;5.30;;;18.50;56.70;;;;;;4947046;28;20194;-70
2023/12/17 04:15:09;;;;;;;5.53;5.03;;;18.50;56.60;;;;;;4977398;28;20561;-69
2023/12/17 04:17:35;;;;;;;5.85;5.35;;;18.60;56.80;;;;;;4956884;28;20271;-70
2023/12/17 04:20:01;;;;;;;6.20;5.60;;;18.50;56.70;;;;;;4982402;28;20184;-69
2023/12/17 04:22:26;;;;;;;5.68;5.18;;;18.50;56.70;;;;;;4966420;28;20319;-70
2023/12/17 04:24:52;;;;;;;5.80;5.30;;;18.50;56.70;;;;;;4965605;28;20191;-69
2023/12/17 04:27:18;;;;;;;5.85;5.35;;;18.50;56.70;;;;;;4973088;28;20200;-70
2023/12/17 04:29:44;;;;;;;5.93;5.43;;;18.50;56.70;;;;;;4972553;28;20201;-70
2023/12/17 04:32:11;;;;;;;6.18;5.57;;;18.50;56.60;;;;;;4976395;28;20218;-71
2023/12/17 04:34:37;;;;;;;6.32;5.45;;;18.60;56.80;;;;;;4977666;28;20268;-70
2023/12/17 04:37:03;;;;;;;5.53;5.03;;;18.50;56.70;;;;;;4981050;28;20308;-70
2023/12/17 04:39:28;;;;;;;4.85;4.35;;;18.50;56.70;;;;;;4976211;28;20186;-71
2023/12/17 04:41:54;;;;;;;5.50;4.90;;;18.50;56.50;;;;;;4974593;28;20206;-70
2023/12/17 04:44:20;;;;;;;5.82;5.22;;;18.50;56.60;;;;;;4975386;28;20189;-70
2023/12/17 04:46:46;;;;;;;5.72;5.05;;;18.50;56.50;;;;;;4986066;28;20681;-70
2023/12/17 04:49:12;;;;;;;4.90;4.50;;;18.60;56.60;;;;;;4987106;28;20217;-70
2023/12/17 04:51:37;;;;;;;5.47;4.97;;;18.50;56.60;;;;;;4962125;28;20225;-70
2023/12/17 04:54:03;;;;;;;5.28;4.78;;;18.50;56.70;;;;;;4964691;28;20186;-70
2023/12/17 04:56:29;;;;;;;4.93;4.53;;;18.50;56.60;;;;;;4956958;28;20226;-70
2023/12/17 04:58:54;;;;;;;5.15;4.65;;;18.50;56.50;;;;;;4973675;28;20209;-70
2023/12/17 05:01:20;;;;;;;4.50;4.10;;;18.50;56.60;;;;;;4987327;28;20219;-70
2023/12/17 05:03:46;;;;;;;4.72;4.32;;;18.50;56.70;;;;;;4973484;28;20683;-70
2023/12/17 05:06:12;;;;;;;4.80;4.40;;;18.50;56.60;;;;;;4972430;28;20223;-70
2023/12/17 05:08:37;;;;;;;4.47;4.07;;;18.50;56.60;;;;;;4957414;28;20194;-69
2023/12/17 05:11:03;;;;;;;4.63;4.22;;;18.50;56.50;;;;;;4972293;28;20588;-70
2023/12/17 05:13:29;;;;;;;5.07;4.60;;;18.50;56.60;;;;;;4972366;28;20194;-69
2023/12/17 05:15:55;;;;;;;5.13;4.60;;;18.50;56.60;;;;;;4971908;28;20295;-70
2023/12/17 05:18:20;;;;;;;4.93;4.53;;;18.50;56.60;;;;;;4956349;28;20178;-70
2023/12/17 05:20:48;;;;;;;4.50;4.10;;;18.50;56.60;;;;;;4955147;28;20221;-71
2023/12/17 05:23:14;;;;;;;4.13;3.80;;;18.50;56.50;;;;;;4982116;28;20185;-71
2023/12/17 05:25:40;;;;;;;4.60;4.20;;;18.50;56.50;;;;;;4954116;28;20654;-70
2023/12/17 05:28:08;;;;;;;4.03;3.70;;;18.50;56.50;;;;;;4972196;28;20193;-70
2023/12/17 05:30:37;;;;;;;4.20;3.80;;;18.50;56.50;;;;;;4970010;28;20276;-70
2023/12/17 05:33:03;;;;;;;4.35;3.70;;;18.50;56.50;;;;;;4979577;28;20229;-70
2023/12/17 05:35:29;;;;;;;3.60;3.30;;;18.50;56.50;;;;;;4972956;28;20253;-70
2023/12/17 05:37:54;;;;;;;4.68;4.18;;;18.50;56.50;;;;;;4978855;28;20181;-70
2023/12/17 05:40:20;;;;;;;4.50;4.10;;;18.50;56.40;;;;;;4966387;28;20292;-71
2023/12/17 05:42:46;;;;;;;3.75;3.45;;;18.50;56.40;;;;;;4983714;28;20278;-70
2023/12/17 05:45:12;;;;;;;4.22;3.83;;;18.50;56.50;;;;;;4944114;28;20182;-70
2023/12/17 05:47:39;;;;;;;3.85;3.53;;;18.50;56.50;;;;;;4952281;28;20680;-70
2023/12/17 05:50:07;;;;;;;3.70;3.40;;;18.50;56.50;;;;;;4987476;28;20677;-70
2023/12/17 05:52:34;;;;;;;3.83;3.40;;;18.50;56.40;;;;;;4976197;28;20178;-70
2023/12/17 05:55:00;;;;;;;3.67;3.38;;;18.50;56.50;;;;;;4987248;28;20189;-70
2023/12/17 05:57:26;;;;;;;4.00;3.60;;;18.50;56.50;;;;;;4972691;28;20221;-69
2023/12/17 05:59:51;;;;;;;4.32;3.92;;;18.50;56.40;;;;;;4987451;28;20197;-69
2023/12/17 06:02:17;;;;;;;3.45;3.15;;;18.50;56.40;;;;;;4986473;28;20205;-70
2023/12/17 06:04:43;;;;;;;3.53;3.22;;;18.50;56.40;;;;;;4974242;28;20300;-70
2023/12/17 06:07:08;;;;;;;3.67;3.38;;;18.50;56.40;;;;;;4970688;28;20193;-69
2023/12/17 06:09:34;;;;;;;3.45;3.15;;;18.50;56.40;;;;;;4973128;28;20216;-70
2023/12/17 06:12:00;;;;;;;3.53;3.20;;;18.50;56.50;;;;;;4978563;28;20741;-70
2023/12/17 06:14:26;;;;;;;3.08;2.88;;;18.50;56.30;;;;;;4949566;28;20225;-70
2023/12/17 06:16:51;;;;;;;3.90;3.60;;;18.50;56.30;;;;;;4951911;28;20222;-70
2023/12/17 06:19:17;;;;;;;3.55;3.25;;;18.50;56.40;;;;;;4961805;28;20186;-70
2023/12/17 06:21:43;;;;;;;3.58;3.28;;;18.50;56.40;;;;;;4993160;28;20213;-70
2023/12/17 06:24:08;;;;;;;3.70;3.40;;;18.50;56.30;;;;;;4955550;28;20605;-70
2023/12/17 06:26:37;;;;;;;3.70;3.40;;;18.50;56.30;;;;;;4983430;28;20580;-70
2023/12/17 06:29:03;;;;;;;3.28;2.95;;;18.50;56.30;;;;;;4955627;28;20201;-69
2023/12/17 06:31:30;;;;;;;3.40;3.10;;;18.50;56.30;;;;;;4972677;28;20222;-69
2023/12/17 06:33:56;;;;;;;3.40;3.10;;;18.50;56.40;;;;;;4971417;28;20221;-70
2023/12/17 06:36:23;;;;;;;3.20;2.90;;;18.50;56.40;;;;;;4985746;28;20214;-70
2023/12/17 06:38:48;;;;;;;3.30;3.00;;;18.50;56.40;;;;;;4975071;28;20217;-70
2023/12/17 06:41:14;;;;;;;3.75;3.25;;;18.50;56.30;;;;;;4991229;28;20205;-69
2023/12/17 06:43:40;;;;;;;3.42;3.17;;;18.50;56.30;;;;;;4986975;28;20193;-70
2023/12/17 06:46:07;;;;;;;3.15;2.85;;;18.50;56.30;;;;;;4975990;28;20196;-69
2023/12/17 06:48:35;;;;;;;3.50;3.20;;;18.50;56.30;;;;;;4986245;28;20196;-70
2023/12/17 06:51:02;;;;;;;3.10;2.90;;;18.50;56.30;;;;;;4974691;28;20214;-69
2023/12/17 06:53:29;;;;;;;3.10;2.90;;;18.50;56.40;;;;;;4974681;28;20280;-70
2023/12/17 06:55:55;;;;;;;3.50;3.20;;;18.50;56.30;;;;;;4974857;28;20261;-69
2023/12/17 06:58:21;;;;;;;3.90;3.60;;;18.50;56.30;;;;;;4981359;28;20345;-70
2023/12/17 07:00:47;;;;;;;3.45;3.08;;;18.50;56.40;;;;;;4973481;28;20225;-69
2023/12/17 07:03:13;;;;;;;3.47;3.17;;;18.50;56.30;;;;;;4951236;28;20196;-70
2023/12/17 07:05:38;;;;;;;3.40;3.10;;;18.50;56.40;;;;;;4966884;28;20203;-69
2023/12/17 07:08:05;;;;;;;3.13;2.83;;;18.50;56.30;;;;;;4971780;28;20190;-69
2023/12/17 07:10:31;;;;;;;3.38;3.15;;;18.50;56.30;;;;;;4975548;28;20217;-70
2023/12/17 07:12:57;;;;;;;3.30;3.10;;;18.50;56.30;;;;;;4992387;28;20245;-70
2023/12/17 07:15:23;;;;;;;3.40;3.10;;;18.50;56.90;;;;;;4990615;28;20285;-70
2023/12/17 07:17:48;;;;;;;3.40;3.10;;;18.50;56.30;;;;;;4981643;28;20284;-70
2023/12/17 07:20:14;;;;;;;3.38;3.15;;;18.50;56.30;;;;;;4964303;28;20193;-70
2023/12/17 07:22:40;;;;;;;3.22;3.03;;;18.50;56.30;;;;;;4980931;28;20260;-71
2023/12/17 07:25:07;;;;;;;3.20;2.90;;;18.50;56.30;;;;;;4996616;28;20196;-71
2023/12/17 07:27:32;;;;;;;3.72;3.42;;;18.50;56.30;;;;;;4960575;28;20198;-70
2023/12/17 07:29:58;;;;;;;3.63;3.33;;;18.50;56.30;;;;;;4951164;28;20193;-70
2023/12/17 07:32:24;;;;;;;3.58;3.28;;;18.50;56.40;;;;;;4975730;28;20264;-70
2023/12/17 07:34:49;;;;;;;3.42;3.13;;;18.50;56.30;;;;;;4989378;28;20569;-69
2023/12/17 07:37:16;;;;;;;3.28;2.97;;;18.50;56.30;;;;;;4977889;28;20220;-70
2023/12/17 07:39:42;;;;;;;3.45;3.10;;;18.50;56.30;;;;;;4984484;28;20216;-71
2023/12/17 07:42:07;;;;;;;3.40;3.15;;;18.50;56.30;;;;;;4979131;28;20213;-70
2023/12/17 07:44:33;;;;;;;3.70;3.40;;;18.50;56.30;;;;;;4962499;28;20661;-70
2023/12/17 07:47:00;;;;;;;3.65;3.35;;;18.40;56.20;;;;;;4988512;28;20190;-70
2023/12/17 07:49:26;;;;;;;3.53;3.22;;;18.50;56.20;;;;;;4964105;28;20665;-70
2023/12/17 07:51:52;;;;;;;3.58;3.25;;;18.50;56.40;;;;;;4953938;28;20214;-70
2023/12/17 07:54:18;;;;;;;3.83;3.20;;;18.50;56.30;;;;;;4979598;28;20173;-70
2023/12/17 07:56:44;;;;;;;3.60;3.33;;;18.50;56.90;;;;;;4999387;28;20213;-70
2023/12/17 07:59:10;;;;;;;3.40;3.10;;;18.50;56.30;;;;;;4978248;28;20558;-69
2023/12/17 08:01:36;;;;;;;3.80;3.50;;;18.50;56.30;;;;;;4972121;28;20209;-69
2023/12/17 08:04:03;;;;;;;3.40;3.08;;;18.50;56.30;;;;;;4974906;28;20244;-70
2023/12/17 08:06:29;;;;;;;3.50;3.20;;;18.50;56.30;;;;;;4988072;28;20201;-70
2023/12/17 08:08:56;;;;;;;3.55;3.25;;;18.50;56.30;;;;;;4993390;28;20208;-70
2023/12/17 08:11:22;;;;;;;3.25;2.95;;;18.50;56.20;;;;;;4964210;28;20232;-70
2023/12/17 08:13:48;;;;;;;3.60;3.40;;;18.50;56.30;;;;;;4972951;28;20204;-69
2023/12/17 08:16:14;;;;;;;3.33;3.13;;;18.50;56.20;;;;;;4963854;28;20241;-70
2023/12/17 08:18:40;;;;;;;3.47;3.15;;;18.50;56.20;;;;;;4989480;28;20190;-70
2023/12/17 08:21:06;;;;;;;3.67;3.38;;;18.50;56.30;;;;;;4982269;28;20224;-70
2023/12/17 08:23:32;;;;;;;3.60;3.30;;;18.50;56.20;;;;;;4960795;28;20186;-70
2023/12/17 08:25:58;;;;;;;3.70;3.40;;;18.50;56.20;;;;;;4970603;28;20198;-70
2023/12/17 08:28:24;;;;;;;3.90;3.60;;;18.50;56.20;;;;;;4977141;28;20267;-70
2023/12/17 08:30:50;;;;;;;3.45;3.15;;;18.50;56.20;;;;;;4970630;28;20222;-70
2023/12/17 08:33:16;;;;;;;3.90;3.60;;;18.50;56.20;;;;;;4954720;28;21139;-70
2023/12/17 08:35:45;;;;;;;3.80;3.50;;;18.50;56.20;;;;;;4986006;28;20284;-70
2023/12/17 08:38:11;;;;;;;3.78;3.47;;;18.50;56.20;;;;;;4963858;28;20239;-72
2023/12/17 08:40:39;;;;;;;3.78;3.47;;;18.50;56.20;;;;;;4971376;28;20304;-70
2023/12/17 08:43:07;;;;;;;4.05;3.63;;;18.50;56.20;;;;;;4972522;28;20570;-71
2023/12/17 08:45:36;;;;;;;4.00;3.60;;;18.50;56.20;;;;;;4997518;28;20209;-70
2023/12/17 08:48:03;;;;;;;4.10;3.70;;;18.50;56.20;;;;;;4962635;28;20240;-68
2023/12/17 08:50:28;;;;;;;4.55;4.15;;;18.50;56.10;;;;;;4978338;28;20209;-70
2023/12/17 08:52:54;;;;;;;4.32;3.92;;;18.50;56.20;;;;;;4964693;28;20192;-70
2023/12/17 08:55:20;;;;;;;4.60;4.22;;;18.50;56.30;;;;;;4976787;28;20194;-70
2023/12/17 08:57:47;;;;;;;4.32;4.03;;;18.50;56.20;;;;;;4969325;28;20259;-70
2023/12/17 09:00:13;;;;;;;4.15;3.80;;;18.50;56.20;;;;;;4958245;28;20200;-70
2023/12/17 09:02:40;;;;;;;4.30;3.90;;;18.50;56.20;;;;;;4974534;28;20197;-69
2023/12/17 09:05:07;;;;;;;4.22;3.92;;;18.50;56.20;;;;;;4973644;28;20193;-70
2023/12/17 09:07:32;;;;;;;4.47;4.15;;;18.50;56.90;;;;;;4982137;28;20190;-70
2023/12/17 09:09:58;;;;;;;4.07;3.78;;;18.50;56.20;;;;;;4994552;28;20204;-69
2023/12/17 09:12:24;;;;;;;4.20;3.90;;;18.50;56.20;;;;;;4986044;28;20198;-70
2023/12/17 09:14:50;;;;;;;4.50;4.10;;;18.60;56.30;;;;;;4972547;28;20247;-70
2023/12/17 09:17:17;;;;;;;4.53;4.13;;;18.50;56.20;;;;;;4967858;28;20213;-69
2023/12/17 09:19:42;;;;;;;4.50;4.10;;;18.50;56.30;;;;;;4974549;28;20209;-70
2023/12/17 09:22:08;;;;;;;4.63;4.22;;;18.50;56.30;;;;;;4984759;28;20214;-70
2023/12/17 09:24:34;;;;;;;4.78;4.38;;;18.60;56.30;;;;;;4984074;28;20735;-70
2023/12/17 09:27:01;;;;;;;4.90;4.40;;;18.50;56.20;;;;;;4978152;28;20275;-70
2023/12/17 09:29:27;;;;;;;4.80;4.40;;;18.60;56.40;;;;;;4976822;28;20222;-70
2023/12/17 09:31:53;;;;;;;5.13;4.65;;;18.60;56.40;;;;;;4975886;28;20267;-70
2023/12/17 09:34:19;;;;;;;4.93;4.53;;;18.50;56.40;;;;;;4996809;28;20422;-70
2023/12/17 09:36:45;;;;;;;5.40;4.90;;;18.60;56.40;;;;;;4970963;28;20225;-70
2023/12/17 09:39:11;;;;;;;5.82;4.82;;;18.60;56.40;;;;;;4978173;28;20189;-70
2023/12/17 09:41:37;;;;;;;6.50;4.97;;;18.50;56.40;;;;;;4951660;28;20249;-70
2023/12/17 09:44:06;;;;;;;5.97;5.38;;;18.60;56.40;;;;;;4966710;28;20251;-70
2023/12/17 09:46:32;;;;;;;5.80;5.28;;;18.60;56.40;;;;;;4971946;28;20204;-70
2023/12/17 09:48:59;;;;;;;5.65;5.15;;;18.60;56.40;;;;;;4973815;28;20202;-71
2023/12/17 09:51:27;;;;;;;6.70;6.13;;;18.60;56.40;;;;;;4955320;28;20300;-71
2023/12/17 09:53:57;;;;;;;6.20;5.60;;;18.60;56.40;;;;;;4968508;28;20320;-70
2023/12/17 09:56:23;;;;;;;6.55;5.95;;;18.60;56.40;;;;;;4976587;28;20209;-70
2023/12/17 09:58:50;;;;;;;6.75;6.10;;;18.60;56.40;;;;;;4971810;28;20190;-71
2023/12/17 10:01:15;;;;;;;6.85;6.15;;;18.60;56.40;;;;;;4966286;28;20223;-70
2023/12/17 10:03:41;;;;;;;7.15;6.38;;;18.60;56.40;;;;;;4966690;28;20174;-70
2023/12/17 10:06:08;;;;;;;7.60;6.90;;;18.60;56.40;;;;;;4963452;28;20200;-70
2023/12/17 10:08:36;;;;;;;6.90;6.30;;;18.60;56.40;;;;;;4975523;28;20201;-70
2023/12/17 10:11:02;;;;;;;7.30;6.60;;;18.60;56.40;;;;;;4956386;28;20241;-70
2023/12/17 10:13:28;;;;;;;7.82;7.03;;;18.60;56.40;;;;;;4986996;28;20275;-70
2023/12/17 10:15:55;;;;;;;7.45;6.72;;;18.60;56.50;;;;;;4968272;28;20221;-70
2023/12/17 10:18:23;;;;;;;7.70;7.10;;;18.60;56.50;;;;;;4982716;28;20209;-70
2023/12/17 10:20:49;;;;;;;7.57;6.88;;;18.60;56.60;;;;;;4980373;28;20200;-71
2023/12/17 10:23:16;;;;;;;8.43;7.55;;;18.60;56.50;;;;;;4966976;28;20666;-70
2023/12/17 10:25:43;;;;;;;8.00;7.20;;;18.60;56.60;;;;;;4965150;28;20181;-70
2023/12/17 10:28:11;;;;;;;8.07;7.28;;;18.60;56.70;;;;;;4976840;28;20196;-70
2023/12/17 10:30:38;;;;;;;8.15;7.00;;;18.70;56.80;;;;;;4969246;28;20221;-71
2023/12/17 10:33:13;;;;;;;8.80;7.97;;;18.70;56.80;;;;;;4973400;28;20178;-71
2023/12/17 10:35:40;;;;;;;7.80;7.10;;;18.70;56.80;;;;;;4976531;28;20256;-70
2023/12/17 10:38:10;;;;;;;9.07;8.02;;;18.70;56.70;;;;;;4969137;28;20207;-70
2023/12/17 10:40:39;;;;;;;9.10;8.20;;;18.70;56.80;;;;;;4971165;28;20698;-71
2023/12/17 10:43:07;;;;;;;8.30;7.50;;;18.70;56.90;;;;;;4979624;28;20578;-72
2023/12/17 10:45:35;;;;;;;8.57;7.75;;;18.70;56.90;;;;;;4968875;28;20183;-71
2023/12/17 10:48:02;;;;;;;8.38;7.47;;;18.70;56.90;;;;;;4989987;28;20182;-71
2023/12/17 10:50:28;;;;;;;8.43;7.63;;;18.70;56.90;;;;;;4980130;28;20232;-71
2023/12/17 10:52:54;;;;;;;8.55;7.75;;;18.70;57.00;;;;;;4978016;28;20221;-71
2023/12/17 10:55:21;;;;;;;8.80;8.00;;;18.70;57.00;;;;;;4966253;28;20266;-71
2023/12/17 10:58:15;;;;;;;8.38;7.53;;;18.70;57.00;;;;;;4972097;28;20662;-70
2023/12/17 11:00:42;;;;;;;8.95;8.05;;;18.70;57.00;;;;;;4975605;28;20202;-71
2023/12/17 11:03:09;;;;;;;8.65;7.85;;;18.70;57.00;;;;;;4977187;28;20217;-70
2023/12/17 11:05:36;;;;;;;8.63;7.43;;;18.70;57.00;;;;;;5000171;28;20190;-69
2023/12/17 11:08:03;;;;;;;8.13;7.32;;;18.70;57.10;;;;;;4974779;28;20244;-70
2023/12/17 11:10:36;;;;;;;8.40;7.60;;;18.70;57.10;;;;;;4989479;28;20300;-71
2023/12/17 11:13:02;;;;;;;9.60;8.05;;;18.70;57.10;;;;;;4983590;28;20188;-72
2023/12/17 11:15:28;;;;;;;8.45;7.63;;;18.70;57.10;;;;;;4980381;28;20197;-72
2023/12/17 11:17:54;;;;;;;8.05;7.35;;;18.70;57.10;;;;;;4980322;28;20189;-70
2023/12/17 11:20:21;;;;;;;7.97;7.18;;;18.70;57.10;;;;;;4959416;28;20261;-71
2023/12/17 11:22:47;;;;;;;8.80;7.90;;;18.70;57.20;;;;;;4978074;28;20197;-71
2023/12/17 11:25:13;;;;;;;8.15;7.35;;;18.80;57.20;;;;;;4970547;28;20182;-71
2023/12/17 11:27:40;;;;;;;7.53;6.82;;;18.70;57.20;;;;;;4973843;28;20200;-71
2023/12/17 11:30:29;;;;;;;7.80;7.10;;;18.70;57.20;;;;;;4984184;28;20220;-71
2023/12/17 11:33:02;;;;;;;7.38;6.68;;;18.70;57.20;;;;;;4974374;28;20200;-71
2023/12/17 11:35:29;;;;;;;7.82;7.13;;;18.80;57.30;;;;;;4984351;28;20201;-71
2023/12/17 11:37:58;;;;;;;7.45;6.75;;;18.80;57.40;;;;;;4972559;28;20675;-70
2023/12/17 11:40:26;;;;;;;7.68;6.97;;;18.70;57.20;;;;;;4960366;28;20240;-71
2023/12/17 11:43:03;;;;;;;7.63;6.90;;;18.70;57.30;;;;;;4983945;28;20186;-71
2023/12/17 11:45:37;;;;;;;7.13;6.32;;;18.70;57.20;;;;;;4981429;28;20189;-70
2023/12/17 11:48:22;;;;;;;7.25;6.57;;;18.70;57.30;;;;;;4977480;28;20189;-70
2023/12/17 11:50:50;;;;;;;7.15;6.55;;;18.80;57.40;;;;;;4972290;28;20213;-71
2023/12/17 11:53:19;;;;;;;6.60;6.00;;;18.80;57.40;;;;;;4960839;28;20186;-70
2023/12/17 11:55:44;;;;;;;6.50;5.90;;;18.80;57.40;;;;;;4977662;28;20251;-71
2023/12/17 11:58:11;;;;;;;7.13;6.32;;;18.80;57.40;;;;;;4972402;28;20233;-70
2023/12/17 12:00:37;;;;;;;6.68;6.07;;;18.80;57.40;;;;;;4976575;28;20202;-71
2023/12/17 12:03:04;;;;;;;6.10;5.60;;;18.80;57.40;;;;;;4973962;28;20217;-71
2023/12/17 12:05:30;;;;;;;6.30;5.70;;;18.80;57.40;;;;;;4960895;28;20198;-71
2023/12/17 12:07:57;;;;;;;6.28;5.68;;;18.80;57.40;;;;;;4987365;28;20195;-70
2023/12/17 12:10:23;;;;;;;6.55;5.95;;;18.80;57.40;;;;;;4969116;28;20352;-71
2023/12/17 12:13:03;;;;;;;7.40;6.10;;;18.80;57.40;;;;;;4970562;28;20189;-71
2023/12/17 12:15:29;;;;;;;6.63;5.95;;;18.80;57.50;;;;;;4955917;28;20197;-71
2023/12/17 12:17:55;;;;;;;6.20;5.60;;;18.80;57.40;;;;;;4980686;28;20177;-71
2023/12/17 12:20:37;;;;;;;6.20;5.70;;;18.80;57.50;;;;;;4977331;28;20205;-71
2023/12/17 12:23:09;;;;;;;6.22;5.63;;;18.80;57.40;;;;;;4971543;28;20190;-70
2023/12/17 12:25:40;;;;;;;5.57;5.13;;;18.80;57.50;;;;;;4970754;28;20196;-71
2023/12/17 12:28:18;;;;;;;6.80;6.20;;;18.80;57.50;;;;;;4989129;28;20186;-71
2023/12/17 12:30:45;;;;;;;6.15;5.55;;;18.80;57.50;;;;;;4969640;28;20222;-71
2023/12/17 12:33:13;;;;;;;6.32;5.78;;;18.80;57.60;;;;;;4969240;28;20193;-71
2023/12/17 12:35:41;;;;;;;5.95;5.47;;;18.80;57.60;;;;;;4974242;28;20208;-70
2023/12/17 12:38:26;;;;;;;6.53;5.93;;;18.80;57.60;;;;;;4976954;28;20194;-71
2023/12/17 12:40:55;;;;;;;6.07;5.57;;;18.80;57.60;;;;;;4973953;28;20307;-70
2023/12/17 12:43:23;;;;;;;6.22;5.63;;;18.90;57.60;;;;;;4958326;28;20655;-70